Flight Number: EUR1419 Duration: 5:00
Departure: Cairo Int'll Airport (HECA) at 08:00 Distance: 1891 Nm
Arrival: Gatwick Airport (EGKK) at 13:00 Equipment: B757-200

Weather Information
Cairo Airport, Egypt (HECA) 30-08N 031-24E 74M Nov 18, 2017 - 06:30 AM EST / 2017.11.18 1130 UTC
Wind: from the W (280 degrees) at 2 MPH (2 KT):0
Visibility: 2 mile(s):0
Sky conditions: mostly cloudy Weather: haze Temperature: 77 F (25 C) Dew Point: 64 F (18 C) Relative Humidity: 65% Pressure (altimeter): 29.88 in. Hg (1012 hPa)
ob: HECA 181130Z 28002KT 4000 HZ BKN030 25/18 Q1012 NOSIG cycle: 11
Sunrise: 04:25 Sunset: 14:53 (UTC)

London / Gatwick Airport, United Kingdom (EGKK) 51-09N 000-11W 0M Nov 18, 2017 - 06:50 AM EST / 2017.11.18 1150 UTC
Wind: from the SW (230 degrees) at 13 MPH (11 KT):0
Visibility: greater than 7 mile(s):0
Sky conditions: mostly cloudy Temperature: 46 F (8 C) Dew Point: 44 F (7 C) Relative Humidity: 93% Pressure (altimeter): 30.18 in. Hg (1022 hPa)
ob: EGKK 181150Z 23011KT 9999 FEW007 BKN015 08/07 Q1022 cycle: 12
Sunrise: 07:28 Sunset: 16:04 (UTC)

TAF:2017/11/18 12:20 TAF EGKK 181104Z 1812/1918 26009KT 9999 BKN030 TEMPO 1812/1819 7000 -RADZ BKN012 PROB30 TEMPO 1812/1819 4000 RADZ BKN006

Previous Pireps for this route
Date Aircraft Flight time Fuel used Landing rate On time
2012-08-18B7775.00820000No
2012-08-27B77704.4361634-679No
2012-09-08B77704.3656427-466No
2012-09-10B7774.30800000No
2013-10-04A32105.1418463-423Charter
2013-12-05B73705.2440782-364Charter
2014-01-20B757-20004.5732595-334No
2014-02-16B77704.4754139-282Yes
2014-04-13B757-20005.5239730-288No
2014-05-22B757-20004.4132526-130Yes
2014-07-19B757-20004.4143942-782Yes
2014-07-21B757-20004.2929935-165Yes
2014-08-07B77704.3452656-152Yes
2014-08-21B757-20004.5135056-241No
2014-09-19B757-20004.4131107-191Yes
2014-10-06B757-20004.2929747-430Yes
2014-10-14B7774.15882090Yes
2014-12-19B757-20004.5331409-185Yes
2015-02-18B757-2005.0242164-610No
2015-04-19B757-20004.5130532-161Yes
2015-05-04B757-20005.0442854-6Charter
2015-12-29B757-20004.3928400-188Yes
2016-02-13B77704.4062643-263Yes
2016-07-26B7774.252156500Yes
2016-08-29B77704.3971901-413Charter
2017-06-04B74700Charter
2017-06-04B74700Charter
2017-06-07B74704.16990760Charter
2017-06-11B74704.2010051150Charter
(pireps marked green are flown by you)

Route map